Date,TemperatureHighF,TemperatureAvgF,TemperatureLowF,DewpointHighF,DewpointAvgF,DewpointLowF,HumidityHigh,HumidityAvg,HumidityLow,PressureMaxIn,PressureMinIn,WindSpeedMaxMPH,WindSpeedAvgMPH,GustSpeedMaxMPH,PrecipitationSumIn
2013-1-1,47.3,43.5,37.5,36.9,32.8,27.1,85,66,47,30.29,30.23,16,7,25,0.00
2013-1-2,53.9,47.5,42.5,38.0,33.2,27.5,66,58,43,30.27,30.16,14,4,19,0.00
2013-1-3,54.7,47.6,42.5,40.0,34.8,24.4,76,61,42,30.28,30.17,9,2,12,0.00
2013-1-4,55.4,49.5,43.1,39.7,35.7,28.1,77,59,47,30.30,30.20,7,2,10,0.00
2013-1-5,51.2,47.7,44.1,45.6,42.6,38.1,93,82,69,30.28,30.09,12,3,16,0.18
2013-1-6,46.1,43.0,41.3,44.7,41.3,40.0,96,94,86,30.22,30.07,12,4,6,0.04
2013-1-7,55.4,47.7,41.9,46.3,42.9,39.8,94,84,70,30.29,30.18,8,1,9,0.00
2013-1-8,57.3,53.7,48.7,45.7,42.7,39.0,77,66,54,30.25,30.15,8,4,10,0.00
2013-1-9,52.3,45.9,41.1,46.2,41.5,34.9,95,85,68,30.16,30.02,15,4,19,0.03
2013-1-10,45.8,41.2,38.1,35.6,33.1,29.0,83,73,53,30.22,30.09,13,7,21,0.00
2013-1-11,45.7,40.8,37.3,40.0,33.8,29.2,89,76,62,30.29,30.15,13,4,12,0.00
2013-1-12,46.3,40.8,36.2,33.9,26.8,23.4,81,58,41,30.28,30.17,8,3,9,0.00
2013-1-13,45.6,39.7,34.4,25.1,18.6,10.5,59,43,30,30.29,30.20,20,7,26,0.00
2013-1-14,47.7,41.1,34.7,20.5,15.5,9.4,41,35,27,30.43,30.23,16,4,29,0.00
2013-1-15,50.9,44.1,40.8,29.6,22.4,17.3,62,43,36,30.50,30.42,14,3,17,0.00
2013-1-16,53.8,47.0,40.9,34.3,30.1,26.1,64,52,42,30.45,30.27,16,5,23,0.00
2013-1-17,60.4,53.7,48.1,32.6,29.6,25.2,51,40,31,30.28,30.17,19,6,21,0.00
2013-1-18,60.9,55.3,50.0,37.1,31.5,22.6,57,41,27,30.23,30.15,15,6,20,0.00
2013-1-19,60.5,56.5,51.6,38.6,29.4,20.8,46,36,25,30.26,30.17,11,4,16,0.00
2013-1-20,61.3,56.3,51.7,34.5,29.1,22.2,49,35,27,30.24,30.14,13,3,17,0.00
2013-1-21,62.2,56.2,50.4,40.4,33.4,23.7,54,43,27,30.18,30.09,18,4,24,0.00
2013-1-22,63.0,56.8,49.7,45.4,35.4,24.6,57,46,23,30.12,30.02,15,2,19,0.00
2013-1-23,62.2,55.9,48.7,48.7,37.1,23.4,91,55,25,30.09,29.96,11,3,13,0.06
2013-1-24,54.1,51.7,48.4,50.6,48.7,46.2,93,90,84,30.21,30.06,15,4,17,0.02
2013-1-25,61.1,55.3,50.8,55.3,51.8,49.0,95,88,77,30.21,30.06,10,2,11,0.00
2013-1-26,54.1,48.4,43.8,50.9,44.6,40.1,96,87,73,30.10,30.02,14,6,20,0.01
2013-1-27,49.9,44.3,40.5,41.1,37.4,32.6,88,77,52,30.20,30.09,10,4,11,0.00
2013-1-28,52.2,45.7,40.3,43.1,38.6,33.8,86,76,58,30.32,30.19,10,4,16,0.00
2013-1-29,52.3,47.2,42.5,43.8,40.9,38.9,89,79,65,30.38,30.30,7,2,11,0.00
2013-1-30,61.3,56.0,50.4,43.8,40.2,35.6,74,56,47,30.36,30.28,9,3,12,0.00
2013-1-31,62.2,54.7,47.6,46.4,42.3,37.5,75,63,51,30.30,30.19,12,3,14,0.00